Aviation Digital Data Service (ADDS)

Output produced by METARs form (1401 UTC 22 April 2019)
found at http://www.aviationweather.gov/metar/data/
 
Forecast for: FBFT (FRANCISTOWN , BW)
Text: TAF FBFT 221200Z 2215/2224 07008KT 9999 SCT030
Forecast period: 1500 UTC 22 April 2019 to 0000 UTC 23 April 2019
Forecast type: FROM: standard forecast or significant change
Winds: from the ENE (70 degrees) at 9 MPH (8 knots; 4.1 m/s)
Visibility: 6 or more miles 10+ km)
Ceiling: at least 12,000 feet AGL
Clouds: scattered clouds at 3000 feet AGL
Weather: no significant weather forecast for this period